sensor_id;sensor_type;location;lat;lon;timestamp;pressure;altitude;pressure_sealevel;temperature
74750;BMP280;63269;53.330;-6.288;2023-04-03T00:00:55;102709.78;;;20.69
74750;BMP280;63269;53.330;-6.288;2023-04-03T00:03:22;102712.06;;;20.67
74750;BMP280;63269;53.330;-6.288;2023-04-03T00:05:48;102712.06;;;20.67
74750;BMP280;63269;53.330;-6.288;2023-04-03T00:08:14;102702.53;;;20.66
74750;BMP280;63269;53.330;-6.288;2023-04-03T00:10:39;102702.94;;;20.65
74750;BMP280;63269;53.330;-6.288;2023-04-03T00:13:06;102701.41;;;20.64
74750;BMP280;63269;53.330;-6.288;2023-04-03T00:15:32;102701.41;;;20.64
74750;BMP280;63269;53.330;-6.288;2023-04-03T00:17:57;102690.38;;;20.62
74750;BMP280;63269;53.330;-6.288;2023-04-03T00:20:23;102686.19;;;20.61
74750;BMP280;63269;53.330;-6.288;2023-04-03T00:22:48;102684.66;;;20.59
74750;BMP280;63269;53.330;-6.288;2023-04-03T00:25:14;102675.13;;;20.58
74750;BMP280;63269;53.330;-6.288;2023-04-03T00:27:40;102675.13;;;20.58
74750;BMP280;63269;53.330;-6.288;2023-04-03T00:30:07;102672.84;;;20.57
74750;BMP280;63269;53.330;-6.288;2023-04-03T00:32:33;102664.47;;;20.55
74750;BMP280;63269;53.330;-6.288;2023-04-03T00:34:59;102669.03;;;20.54
74750;BMP280;63269;53.330;-6.288;2023-04-03T00:37:25;102664.84;;;20.53
74750;BMP280;63269;53.330;-6.288;2023-04-03T00:39:50;102658.75;;;20.53
74750;BMP280;63269;53.330;-6.288;2023-04-03T00:42:16;102658.38;;;20.51
74750;BMP280;63269;53.330;-6.288;2023-04-03T00:47:08;102658.00;;;20.49
74750;BMP280;63269;53.330;-6.288;2023-04-03T00:49:36;102649.63;;;20.47
74750;BMP280;63269;53.330;-6.288;2023-04-03T00:52:02;102649.63;;;20.47
74750;BMP280;63269;53.330;-6.288;2023-04-03T00:54:28;102646.19;;;20.46
74750;BMP280;63269;53.330;-6.288;2023-04-03T00:56:56;102651.88;;;20.45
74750;BMP280;63269;53.330;-6.288;2023-04-03T00:59:28;102650.41;;;20.44
74750;BMP280;63269;53.330;-6.288;2023-04-03T01:01:55;102650.41;;;20.44
74750;BMP280;63269;53.330;-6.288;2023-04-03T01:04:33;102646.94;;;20.43
74750;BMP280;63269;53.330;-6.288;2023-04-03T01:07:05;102645.06;;;20.40
74750;BMP280;63269;53.330;-6.288;2023-04-03T01:09:32;102634.78;;;20.38
74750;BMP280;63269;53.330;-6.288;2023-04-03T01:14:50;102643.16;;;20.37
74750;BMP280;63269;53.330;-6.288;2023-04-03T01:28:19;102632.88;;;20.28
74750;BMP280;63269;53.330;-6.288;2023-04-03T01:33:38;102629.47;;;20.28
74750;BMP280;63269;53.330;-6.288;2023-04-03T01:36:04;102637.81;;;20.26
74750;BMP280;63269;53.330;-6.288;2023-04-03T01:38:30;102632.50;;;20.26
74750;BMP280;63269;53.330;-6.288;2023-04-03T01:40:55;102632.50;;;20.26
74750;BMP280;63269;53.330;-6.288;2023-04-03T01:43:21;102618.03;;;20.24
74750;BMP280;63269;53.330;-6.288;2023-04-03T01:45:46;102620.31;;;20.22
74750;BMP280;63269;53.330;-6.288;2023-04-03T01:48:14;102626.44;;;20.22
74750;BMP280;63269;53.330;-6.288;2023-04-03T01:50:40;102626.78;;;20.21
74750;BMP280;63269;53.330;-6.288;2023-04-03T01:53:06;102626.78;;;20.21
74750;BMP280;63269;53.330;-6.288;2023-04-03T01:55:31;102618.03;;;20.20
74750;BMP280;63269;53.330;-6.288;2023-04-03T01:57:56;102617.69;;;20.18
74750;BMP280;63269;53.330;-6.288;2023-04-03T02:00:22;102617.69;;;20.18
74750;BMP280;63269;53.330;-6.288;2023-04-03T02:02:47;102617.28;;;20.16
74750;BMP280;63269;53.330;-6.288;2023-04-03T02:05:13;102619.94;;;20.16
74750;BMP280;63269;53.330;-6.288;2023-04-03T02:07:38;102619.94;;;20.16
74750;BMP280;63269;53.330;-6.288;2023-04-03T02:10:04;102613.47;;;20.13
74750;BMP280;63269;53.330;-6.288;2023-04-03T02:12:30;102603.97;;;20.12
74750;BMP280;63269;53.330;-6.288;2023-04-03T02:14:55;102600.53;;;20.12
74750;BMP280;63269;53.330;-6.288;2023-04-03T02:17:20;102607.75;;;20.11
74750;BMP280;63269;53.330;-6.288;2023-04-03T02:19:46;102607.75;;;20.11
74750;BMP280;63269;53.330;-6.288;2023-04-03T02:22:11;102599.38;;;20.09
74750;BMP280;63269;53.330;-6.288;2023-04-03T02:24:37;102599.38;;;20.09
74750;BMP280;63269;53.330;-6.288;2023-04-03T02:27:04;102603.22;;;20.08
74750;BMP280;63269;53.330;-6.288;2023-04-03T02:29:29;102590.25;;;20.07
74750;BMP280;63269;53.330;-6.288;2023-04-03T02:31:55;102588.72;;;20.06
74750;BMP280;63269;53.330;-6.288;2023-04-03T02:34:21;102588.72;;;20.06
74750;BMP280;63269;53.330;-6.288;2023-04-03T02:36:46;102593.31;;;20.05
74750;BMP280;63269;53.330;-6.288;2023-04-03T02:39:11;102591.00;;;20.04
74750;BMP280;63269;53.330;-6.288;2023-04-03T02:41:37;102590.25;;;20.03
74750;BMP280;63269;53.330;-6.288;2023-04-03T02:44:04;102590.25;;;20.03
74750;BMP280;63269;53.330;-6.288;2023-04-03T02:46:29;102590.63;;;20.02
74750;BMP280;63269;53.330;-6.288;2023-04-03T02:48:55;102590.63;;;20.02
74750;BMP280;63269;53.330;-6.288;2023-04-03T02:51:21;102580.38;;;20.00
74750;BMP280;63269;53.330;-6.288;2023-04-03T02:53:49;102583.03;;;20.00
74750;BMP280;63269;53.330;-6.288;2023-04-03T02:56:14;102584.16;;;19.99
74750;BMP280;63269;53.330;-6.288;2023-04-03T02:58:40;102581.88;;;19.97
74750;BMP280;63269;53.330;-6.288;2023-04-03T03:01:06;102571.22;;;19.97
74750;BMP280;63269;53.330;-6.288;2023-04-03T03:03:32;102571.22;;;19.97
74750;BMP280;63269;53.330;-6.288;2023-04-03T03:06:09;102566.28;;;19.96
74750;BMP280;63269;53.330;-6.288;2023-04-03T03:08:35;102567.03;;;19.96
74750;BMP280;63269;53.330;-6.288;2023-04-03T03:11:01;102564.00;;;19.94
74750;BMP280;63269;53.330;-6.288;2023-04-03T03:13:27;102561.34;;;19.94
74750;BMP280;63269;53.330;-6.288;2023-04-03T03:15:52;102555.25;;;19.94
74750;BMP280;63269;53.330;-6.288;2023-04-03T03:18:18;102554.47;;;19.93
74750;BMP280;63269;53.330;-6.288;2023-04-03T03:20:43;102561.72;;;19.93
74750;BMP280;63269;53.330;-6.288;2023-04-03T03:23:09;102552.97;;;19.92
74750;BMP280;63269;53.330;-6.288;2023-04-03T03:25:38;102554.13;;;19.91
74750;BMP280;63269;53.330;-6.288;2023-04-03T03:28:04;102546.50;;;19.90
74750;BMP280;63269;53.330;-6.288;2023-04-03T03:30:29;102552.59;;;19.90
74750;BMP280;63269;53.330;-6.288;2023-04-03T03:32:55;102547.63;;;19.89
74750;BMP280;63269;53.330;-6.288;2023-04-03T03:35:20;102548.75;;;19.88
74750;BMP280;63269;53.330;-6.288;2023-04-03T03:37:46;102548.75;;;19.88
74750;BMP280;63269;53.330;-6.288;2023-04-03T03:40:11;102543.44;;;19.88
74750;BMP280;63269;53.330;-6.288;2023-04-03T03:42:38;102539.28;;;19.87
74750;BMP280;63269;53.330;-6.288;2023-04-03T03:45:04;102536.97;;;19.85
74750;BMP280;63269;53.330;-6.288;2023-04-03T03:47:30;102541.16;;;19.86
74750;BMP280;63269;53.330;-6.288;2023-04-03T03:49:55;102543.06;;;19.86
74750;BMP280;63269;53.330;-6.288;2023-04-03T03:52:21;102538.13;;;19.84
74750;BMP280;63269;53.330;-6.288;2023-04-03T03:54:46;102538.13;;;19.84
74750;BMP280;63269;53.330;-6.288;2023-04-03T03:57:11;102528.22;;;19.85
74750;BMP280;63269;53.330;-6.288;2023-04-03T03:59:37;102534.69;;;19.84
74750;BMP280;63269;53.330;-6.288;2023-04-03T04:02:03;102534.69;;;19.84
74750;BMP280;63269;53.330;-6.288;2023-04-03T04:04:28;102529.75;;;19.82
74750;BMP280;63269;53.330;-6.288;2023-04-03T04:06:53;102531.66;;;19.82
74750;BMP280;63269;53.330;-6.288;2023-04-03T04:09:19;102534.69;;;19.80
74750;BMP280;63269;53.330;-6.288;2023-04-03T04:11:44;102542.69;;;19.80
74750;BMP280;63269;53.330;-6.288;2023-04-03T04:14:10;102545.75;;;19.79
74750;BMP280;63269;53.330;-6.288;2023-04-03T04:16:37;102534.69;;;19.80
74750;BMP280;63269;53.330;-6.288;2023-04-03T04:19:03;102535.09;;;19.79
74750;BMP280;63269;53.330;-6.288;2023-04-03T04:21:28;102535.09;;;19.79
74750;BMP280;63269;53.330;-6.288;2023-04-03T04:23:53;102542.31;;;19.78
74750;BMP280;63269;53.330;-6.288;2023-04-03T04:26:19;102537.34;;;19.76
74750;BMP280;63269;53.330;-6.288;2023-04-03T04:28:45;102537.34;;;19.76
74750;BMP280;63269;53.330;-6.288;2023-04-03T04:31:10;102537.34;;;19.76
74750;BMP280;63269;53.330;-6.288;2023-04-03T04:33:36;102531.66;;;19.74
74750;BMP280;63269;53.330;-6.288;2023-04-03T04:36:01;102536.22;;;19.74
74750;BMP280;63269;53.330;-6.288;2023-04-03T04:38:27;102536.22;;;19.74
74750;BMP280;63269;53.330;-6.288;2023-04-03T04:40:52;102535.47;;;19.73
74750;BMP280;63269;53.330;-6.288;2023-04-03T04:43:17;102535.84;;;19.72
74750;BMP280;63269;53.330;-6.288;2023-04-03T04:45:43;102536.59;;;19.72
74750;BMP280;63269;53.330;-6.288;2023-04-03T04:48:08;102527.84;;;19.72
74750;BMP280;63269;53.330;-6.288;2023-04-03T04:50:34;102536.59;;;19.72
74750;BMP280;63269;53.330;-6.288;2023-04-03T04:52:59;102536.59;;;19.72
74750;BMP280;63269;53.330;-6.288;2023-04-03T04:55:25;102531.63;;;19.71
74750;BMP280;63269;53.330;-6.288;2023-04-03T04:57:50;102536.97;;;19.71
74750;BMP280;63269;53.330;-6.288;2023-04-03T05:00:16;102539.63;;;19.71
74750;BMP280;63269;53.330;-6.288;2023-04-03T05:02:42;102534.69;;;19.69
74750;BMP280;63269;53.330;-6.288;2023-04-03T05:05:08;102536.97;;;19.67
74750;BMP280;63269;53.330;-6.288;2023-04-03T05:07:33;102541.94;;;19.69
74750;BMP280;63269;53.330;-6.288;2023-04-03T05:10:01;102541.94;;;19.69
74750;BMP280;63269;53.330;-6.288;2023-04-03T05:12:27;102536.19;;;19.67
74750;BMP280;63269;53.330;-6.288;2023-04-03T05:14:53;102544.97;;;19.67
74750;BMP280;63269;53.330;-6.288;2023-04-03T05:17:18;102539.66;;;19.67
74750;BMP280;63269;53.330;-6.288;2023-04-03T05:19:44;102538.13;;;19.66
74750;BMP280;63269;53.330;-6.288;2023-04-03T05:22:09;102540.41;;;19.64
74750;BMP280;63269;53.330;-6.288;2023-04-03T05:24:35;102539.66;;;19.67
74750;BMP280;63269;53.330;-6.288;2023-04-03T05:27:00;102539.66;;;19.67
74750;BMP280;63269;53.330;-6.288;2023-04-03T05:29:26;102538.13;;;19.73
74750;BMP280;63269;53.330;-6.288;2023-04-03T05:31:51;102538.13;;;19.77
74750;BMP280;63269;53.330;-6.288;2023-04-03T05:34:17;102539.25;;;19.80
74750;BMP280;63269;53.330;-6.288;2023-04-03T05:36:42;102539.25;;;19.80
74750;BMP280;63269;53.330;-6.288;2023-04-03T05:39:08;102545.75;;;19.86
74750;BMP280;63269;53.330;-6.288;2023-04-03T05:41:34;102543.06;;;19.89
74750;BMP280;63269;53.330;-6.288;2023-04-03T05:43:59;102543.81;;;19.93
74750;BMP280;63269;53.330;-6.288;2023-04-03T05:46:25;102537.75;;;19.96
74750;BMP280;63269;53.330;-6.288;2023-04-03T05:48:50;102538.88;;;19.99
74750;BMP280;63269;53.330;-6.288;2023-04-03T05:51:23;102545.72;;;20.04
74750;BMP280;63269;53.330;-6.288;2023-04-03T05:53:56;102545.72;;;20.04
74750;BMP280;63269;53.330;-6.288;2023-04-03T05:56:24;102541.53;;;20.10
74750;BMP280;63269;53.330;-6.288;2023-04-03T05:58:50;102549.53;;;20.13
74750;BMP280;63269;53.330;-6.288;2023-04-03T06:01:15;102539.25;;;20.15
74750;BMP280;63269;53.330;-6.288;2023-04-03T06:03:41;102543.06;;;20.18
74750;BMP280;63269;53.330;-6.288;2023-04-03T06:06:06;102543.06;;;20.18
74750;BMP280;63269;53.330;-6.288;2023-04-03T06:08:33;102542.66;;;20.20
74750;BMP280;63269;53.330;-6.288;2023-04-03T06:10:59;102539.25;;;20.23
74750;BMP280;63269;53.330;-6.288;2023-04-03T06:13:24;102533.50;;;20.28
74750;BMP280;63269;53.330;-6.288;2023-04-03T06:15:50;102533.50;;;20.28
74750;BMP280;63269;53.330;-6.288;2023-04-03T06:18:15;102523.59;;;20.28
74750;BMP280;63269;53.330;-6.288;2023-04-03T06:20:41;102529.31;;;20.30
74750;BMP280;63269;53.330;-6.288;2023-04-03T06:23:06;102540.72;;;20.34
74750;BMP280;63269;53.330;-6.288;2023-04-03T06:25:32;102540.72;;;20.34
74750;BMP280;63269;53.330;-6.288;2023-04-03T06:27:58;102530.81;;;20.38
74750;BMP280;63269;53.330;-6.288;2023-04-03T06:30:24;102534.22;;;20.39
74750;BMP280;63269;53.330;-6.288;2023-04-03T06:32:49;102534.22;;;20.39
74750;BMP280;63269;53.330;-6.288;2023-04-03T06:35:15;102530.81;;;20.42
74750;BMP280;63269;53.330;-6.288;2023-04-03T06:37:41;102526.22;;;20.43
74750;BMP280;63269;53.330;-6.288;2023-04-03T06:40:07;102532.69;;;20.45
74750;BMP280;63269;53.330;-6.288;2023-04-03T06:42:34;102536.91;;;20.46
74750;BMP280;63269;53.330;-6.288;2023-04-03T06:45:00;102547.53;;;20.50
74750;BMP280;63269;53.330;-6.288;2023-04-03T06:47:25;102547.16;;;20.51
74750;BMP280;63269;53.330;-6.288;2023-04-03T06:49:51;102538.78;;;20.53
74750;BMP280;63269;53.330;-6.288;2023-04-03T06:52:16;102538.78;;;20.53
74750;BMP280;63269;53.330;-6.288;2023-04-03T06:54:42;102553.22;;;20.55
74750;BMP280;63269;53.330;-6.288;2023-04-03T06:57:07;102550.19;;;20.57
74750;BMP280;63269;53.330;-6.288;2023-04-03T06:59:34;102554.38;;;20.58
74750;BMP280;63269;53.330;-6.288;2023-04-03T07:02:00;102553.97;;;20.59
74750;BMP280;63269;53.330;-6.288;2023-04-03T07:04:26;102553.97;;;20.59
74750;BMP280;63269;53.330;-6.288;2023-04-03T07:06:51;102556.28;;;20.61
74750;BMP280;63269;53.330;-6.288;2023-04-03T07:09:17;102556.28;;;20.61
74750;BMP280;63269;53.330;-6.288;2023-04-03T07:11:43;102561.59;;;20.65
74750;BMP280;63269;53.330;-6.288;2023-04-03T07:14:09;102558.53;;;20.66
74750;BMP280;63269;53.330;-6.288;2023-04-03T07:16:35;102546.69;;;20.67
74750;BMP280;63269;53.330;-6.288;2023-04-03T07:19:02;102544.81;;;20.68
74750;BMP280;63269;53.330;-6.288;2023-04-03T07:21:28;102549.75;;;20.69
74750;BMP280;63269;53.330;-6.288;2023-04-03T07:23:53;102552.78;;;20.71
74750;BMP280;63269;53.330;-6.288;2023-04-03T07:26:19;102551.66;;;20.72
74750;BMP280;63269;53.330;-6.288;2023-04-03T07:28:46;102566.13;;;20.75
74750;BMP280;63269;53.330;-6.288;2023-04-03T07:31:14;102556.97;;;20.76
74750;BMP280;63269;53.330;-6.288;2023-04-03T07:33:40;102567.66;;;20.76
74750;BMP280;63269;53.330;-6.288;2023-04-03T07:36:07;102556.59;;;20.77
74750;BMP280;63269;53.330;-6.288;2023-04-03T07:38:34;102558.84;;;20.79
74750;BMP280;63269;53.330;-6.288;2023-04-03T07:41:00;102565.69;;;20.80
74750;BMP280;63269;53.330;-6.288;2023-04-03T07:43:26;102555.81;;;20.81
74750;BMP280;63269;53.330;-6.288;2023-04-03T07:45:51;102569.91;;;20.81
74750;BMP280;63269;53.330;-6.288;2023-04-03T07:48:19;102576.38;;;20.84
74750;BMP280;63269;53.330;-6.288;2023-04-03T07:50:45;102577.13;;;20.84
74750;BMP280;63269;53.330;-6.288;2023-04-03T07:53:10;102569.91;;;20.85
74750;BMP280;63269;53.330;-6.288;2023-04-03T07:55:36;102563.03;;;20.87
74750;BMP280;63269;53.330;-6.288;2023-04-03T07:58:12;102578.66;;;20.89
74750;BMP280;63269;53.330;-6.288;2023-04-03T08:00:38;102571.41;;;20.89
74750;BMP280;63269;53.330;-6.288;2023-04-03T08:03:05;102578.25;;;20.90
74750;BMP280;63269;53.330;-6.288;2023-04-03T08:05:31;102580.53;;;20.92
74750;BMP280;63269;53.330;-6.288;2023-04-03T08:07:56;102578.59;;;20.92
74750;BMP280;63269;53.330;-6.288;2023-04-03T08:10:22;102582.06;;;20.93
74750;BMP280;63269;53.330;-6.288;2023-04-03T08:12:48;102582.06;;;20.93
74750;BMP280;63269;53.330;-6.288;2023-04-03T08:15:14;102577.09;;;20.95
74750;BMP280;63269;53.330;-6.288;2023-04-03T08:17:39;102577.09;;;20.95
74750;BMP280;63269;53.330;-6.288;2023-04-03T08:20:06;102583.94;;;20.96
74750;BMP280;63269;53.330;-6.288;2023-04-03T08:22:33;102588.50;;;20.99
74750;BMP280;63269;53.330;-6.288;2023-04-03T08:24:59;102585.44;;;21.00
74750;BMP280;63269;53.330;-6.288;2023-04-03T08:27:25;102587.72;;;21.02
74750;BMP280;63269;53.330;-6.288;2023-04-03T08:29:51;102581.25;;;21.03
74750;BMP280;63269;53.330;-6.288;2023-04-03T08:32:17;102578.94;;;21.05
74750;BMP280;63269;53.330;-6.288;2023-04-03T08:34:43;102582.00;;;21.07
74750;BMP280;63269;53.330;-6.288;2023-04-03T08:37:08;102592.25;;;21.09
74750;BMP280;63269;53.330;-6.288;2023-04-03T08:39:34;102596.44;;;21.10
74750;BMP280;63269;53.330;-6.288;2023-04-03T08:42:05;102586.53;;;21.10
74750;BMP280;63269;53.330;-6.288;2023-04-03T08:44:38;102590.75;;;21.11
74750;BMP280;63269;53.330;-6.288;2023-04-03T08:50:07;102587.28;;;21.14
74750;BMP280;63269;53.330;-6.288;2023-04-03T08:52:48;102592.25;;;21.16
74750;BMP280;63269;53.330;-6.288;2023-04-03T08:57:47;102588.41;;;21.17
74750;BMP280;63269;53.330;-6.288;2023-04-03T09:02:48;102582.31;;;21.20
74750;BMP280;63269;53.330;-6.288;2023-04-03T09:10:41;102589.91;;;21.22
74750;BMP280;63269;53.330;-6.288;2023-04-03T09:15:51;102588.78;;;21.23
74750;BMP280;63269;53.330;-6.288;2023-04-03T09:18:31;102595.63;;;21.24
74750;BMP280;63269;53.330;-6.288;2023-04-03T09:21:37;102588.41;;;21.24
74750;BMP280;63269;53.330;-6.288;2023-04-03T09:24:05;102594.88;;;21.23
74750;BMP280;63269;53.330;-6.288;2023-04-03T09:29:08;102588.00;;;21.22
74750;BMP280;63269;53.330;-6.288;2023-04-03T09:31:39;102596.41;;;21.20
74750;BMP280;63269;53.330;-6.288;2023-04-03T09:34:22;102589.13;;;21.21
74750;BMP280;63269;53.330;-6.288;2023-04-03T09:36:50;102581.91;;;21.18
74750;BMP280;63269;53.330;-6.288;2023-04-03T09:39:22;102584.56;;;21.18
74750;BMP280;63269;53.330;-6.288;2023-04-03T09:41:58;102586.91;;;21.16
74750;BMP280;63269;53.330;-6.288;2023-04-03T09:44:36;102588.03;;;21.15
74750;BMP280;63269;53.330;-6.288;2023-04-03T09:47:35;102586.16;;;21.12
74750;BMP280;63269;53.330;-6.288;2023-04-03T09:52:48;102577.41;;;21.08
74750;BMP280;63269;53.330;-6.288;2023-04-03T09:55:15;102583.13;;;21.06
74750;BMP280;63269;53.330;-6.288;2023-04-03T09:57:41;102588.13;;;21.04
74750;BMP280;63269;53.330;-6.288;2023-04-03T10:00:20;102582.38;;;21.02
74750;BMP280;63269;53.330;-6.288;2023-04-03T10:02:50;102576.69;;;21.00
74750;BMP280;63269;53.330;-6.288;2023-04-03T10:05:35;102589.66;;;20.98
74750;BMP280;63269;53.330;-6.288;2023-04-03T10:10:39;102585.09;;;20.95
74750;BMP280;63269;53.330;-6.288;2023-04-03T10:13:15;102578.59;;;20.92
74750;BMP280;63269;53.330;-6.288;2023-04-03T10:16:04;102583.59;;;20.90
74750;BMP280;63269;53.330;-6.288;2023-04-03T10:18:42;102584.38;;;20.87
74750;BMP280;63269;53.330;-6.288;2023-04-03T10:27:12;102581.34;;;20.78
74750;BMP280;63269;53.330;-6.288;2023-04-03T10:29:55;102579.81;;;20.77
74750;BMP280;63269;53.330;-6.288;2023-04-03T10:32:35;102577.19;;;20.73
74750;BMP280;63269;53.330;-6.288;2023-04-03T10:38:07;102576.44;;;20.69
74750;BMP280;63269;53.330;-6.288;2023-04-03T10:46:02;102582.53;;;20.66
74750;BMP280;63269;53.330;-6.288;2023-04-03T10:51:17;102581.78;;;20.62
74750;BMP280;63269;53.330;-6.288;2023-04-03T10:56:48;102585.19;;;20.63
74750;BMP280;63269;53.330;-6.288;2023-04-03T10:59:28;102573.78;;;20.66
74750;BMP280;63269;53.330;-6.288;2023-04-03T11:02:01;102573.03;;;20.69
74750;BMP280;63269;53.330;-6.288;2023-04-03T11:04:31;102572.97;;;20.72
74750;BMP280;63269;53.330;-6.288;2023-04-03T11:07:15;102578.31;;;20.76
74750;BMP280;63269;53.330;-6.288;2023-04-03T11:09:43;102566.84;;;20.79
74750;BMP280;63269;53.330;-6.288;2023-04-03T11:12:33;102574.09;;;20.82
74750;BMP280;63269;53.330;-6.288;2023-04-03T11:15:02;102572.56;;;20.85
74750;BMP280;63269;53.330;-6.288;2023-04-03T11:17:33;102569.84;;;20.88
74750;BMP280;63269;53.330;-6.288;2023-04-03T11:22:43;102564.50;;;20.92
74750;BMP280;63269;53.330;-6.288;2023-04-03T11:27:43;102571.34;;;20.96
74750;BMP280;63269;53.330;-6.288;2023-04-03T11:30:22;102564.09;;;20.97
74750;BMP280;63269;53.330;-6.288;2023-04-03T11:35:26;102568.66;;;21.00
74750;BMP280;63269;53.330;-6.288;2023-04-03T11:37:52;102573.63;;;21.02
74750;BMP280;63269;53.330;-6.288;2023-04-03T11:40:22;102566.78;;;21.04
74750;BMP280;63269;53.330;-6.288;2023-04-03T11:42:52;102560.25;;;21.05
74750;BMP280;63269;53.330;-6.288;2023-04-03T11:47:52;102561.00;;;21.09
74750;BMP280;63269;53.330;-6.288;2023-04-03T11:55:52;102558.31;;;21.13
74750;BMP280;63269;53.330;-6.288;2023-04-03T11:58:21;102559.81;;;21.14
74750;BMP280;63269;53.330;-6.288;2023-04-03T12:00:51;102556.00;;;21.15
74750;BMP280;63269;53.330;-6.288;2023-04-03T12:19:38;102548.72;;;21.23
74750;BMP280;63269;53.330;-6.288;2023-04-03T12:22:16;102550.25;;;21.24
74750;BMP280;63269;53.330;-6.288;2023-04-03T12:24:52;102544.50;;;21.25
74750;BMP280;63269;53.330;-6.288;2023-04-03T12:27:30;102534.22;;;21.27
74750;BMP280;63269;53.330;-6.288;2023-04-03T12:30:04;102539.53;;;21.27
74750;BMP280;63269;53.330;-6.288;2023-04-03T12:32:42;102541.84;;;21.29
74750;BMP280;63269;53.330;-6.288;2023-04-03T12:47:42;102528.81;;;21.34
74750;BMP280;63269;53.330;-6.288;2023-04-03T12:50:19;102527.69;;;21.35
74750;BMP280;63269;53.330;-6.288;2023-04-03T12:52:51;102527.69;;;21.35
74750;BMP280;63269;53.330;-6.288;2023-04-03T12:55:19;102521.16;;;21.36
74750;BMP280;63269;53.330;-6.288;2023-04-03T12:57:45;102517.75;;;21.36
74750;BMP280;63269;53.330;-6.288;2023-04-03T13:00:30;102515.41;;;21.38
74750;BMP280;63269;53.330;-6.288;2023-04-03T13:02:58;102513.13;;;21.40
74750;BMP280;63269;53.330;-6.288;2023-04-03T13:05:24;102512.00;;;21.41
74750;BMP280;63269;53.330;-6.288;2023-04-03T13:08:03;102509.34;;;21.41
74750;BMP280;63269;53.330;-6.288;2023-04-03T13:10:30;102512.34;;;21.43
74750;BMP280;63269;53.330;-6.288;2023-04-03T13:13:09;102513.50;;;21.46
74750;BMP280;63269;53.330;-6.288;2023-04-03T13:15:44;102513.88;;;21.44
74750;BMP280;63269;53.330;-6.288;2023-04-03T13:20:48;102511.53;;;21.46
74750;BMP280;63269;53.330;-6.288;2023-04-03T13:23:16;102511.16;;;21.48
74750;BMP280;63269;53.330;-6.288;2023-04-03T13:25:44;102502.81;;;21.46
74750;BMP280;63269;53.330;-6.288;2023-04-03T13:28:13;102504.25;;;21.50
74750;BMP280;63269;53.330;-6.288;2023-04-03T13:30:41;102486.75;;;21.49
74750;BMP280;63269;53.330;-6.288;2023-04-03T13:33:22;102483.66;;;21.51
74750;BMP280;63269;53.330;-6.288;2023-04-03T13:36:04;102489.78;;;21.51
74750;BMP280;63269;53.330;-6.288;2023-04-03T13:38:31;102489.38;;;21.53
74750;BMP280;63269;53.330;-6.288;2023-04-03T13:41:01;102488.25;;;21.54
74750;BMP280;63269;53.330;-6.288;2023-04-03T13:43:33;102480.22;;;21.54
74750;BMP280;63269;53.330;-6.288;2023-04-03T13:51:17;102482.09;;;21.57
74750;BMP280;63269;53.330;-6.288;2023-04-03T13:53:52;102485.53;;;21.57
74750;BMP280;63269;53.330;-6.288;2023-04-03T14:01:48;102476.31;;;21.62
74750;BMP280;63269;53.330;-6.288;2023-04-03T14:06:49;102475.16;;;21.63
74750;BMP280;63269;53.330;-6.288;2023-04-03T14:09:16;102482.78;;;21.65
74750;BMP280;63269;53.330;-6.288;2023-04-03T14:11:43;102470.97;;;21.66
74750;BMP280;63269;53.330;-6.288;2023-04-03T14:14:18;102469.78;;;21.67
74750;BMP280;63269;53.330;-6.288;2023-04-03T14:16:52;102470.94;;;21.69
74750;BMP280;63269;53.330;-6.288;2023-04-03T14:19:27;102464.06;;;21.68
74750;BMP280;63269;53.330;-6.288;2023-04-03T14:21:54;102472.44;;;21.70
74750;BMP280;63269;53.330;-6.288;2023-04-03T14:24:21;102470.50;;;21.71
74750;BMP280;63269;53.330;-6.288;2023-04-03T14:26:48;102468.22;;;21.73
74750;BMP280;63269;53.330;-6.288;2023-04-03T14:29:14;102459.06;;;21.74
74750;BMP280;63269;53.330;-6.288;2023-04-03T14:31:42;102449.13;;;21.74
74750;BMP280;63269;53.330;-6.288;2023-04-03T14:34:10;102461.66;;;21.77
74750;BMP280;63269;53.330;-6.288;2023-04-03T14:36:35;102452.91;;;21.77
74750;BMP280;63269;53.330;-6.288;2023-04-03T14:39:03;102456.34;;;21.77
74750;BMP280;63269;53.330;-6.288;2023-04-03T14:41:29;102449.81;;;21.78
74750;BMP280;63269;53.330;-6.288;2023-04-03T14:43:54;102449.81;;;21.78
74750;BMP280;63269;53.330;-6.288;2023-04-03T14:46:25;102451.72;;;21.81
74750;BMP280;63269;53.330;-6.288;2023-04-03T14:48:52;102443.69;;;21.81
74750;BMP280;63269;53.330;-6.288;2023-04-03T14:51:17;102444.47;;;21.82
74750;BMP280;63269;53.330;-6.288;2023-04-03T14:53:44;102437.53;;;21.85
74750;BMP280;63269;53.330;-6.288;2023-04-03T14:56:23;102435.19;;;21.90
74750;BMP280;63269;53.330;-6.288;2023-04-03T14:58:55;102448.84;;;21.99
74750;BMP280;63269;53.330;-6.288;2023-04-03T15:01:21;102438.78;;;22.11
74750;BMP280;63269;53.330;-6.288;2023-04-03T15:03:47;102429.88;;;22.21
74750;BMP280;63269;53.330;-6.288;2023-04-03T15:06:13;102420.59;;;22.29
74750;BMP280;63269;53.330;-6.288;2023-04-03T15:08:40;102433.13;;;22.36
74750;BMP280;63269;53.330;-6.288;2023-04-03T15:11:08;102428.50;;;22.40
74750;BMP280;63269;53.330;-6.288;2023-04-03T15:13:33;102425.75;;;22.43
74750;BMP280;63269;53.330;-6.288;2023-04-03T15:15:59;102425.34;;;22.45
74750;BMP280;63269;53.330;-6.288;2023-04-03T15:18:26;102416.91;;;22.47
74750;BMP280;63269;53.330;-6.288;2023-04-03T15:20:55;102420.34;;;22.47
74750;BMP280;63269;53.330;-6.288;2023-04-03T15:23:21;102418.84;;;22.46
74750;BMP280;63269;53.330;-6.288;2023-04-03T15:25:51;102414.59;;;22.49
74750;BMP280;63269;53.330;-6.288;2023-04-03T15:28:23;102409.25;;;22.49
74750;BMP280;63269;53.330;-6.288;2023-04-03T15:30:50;102410.41;;;22.48
74750;BMP280;63269;53.330;-6.288;2023-04-03T15:33:15;102406.59;;;22.49
74750;BMP280;63269;53.330;-6.288;2023-04-03T15:35:41;102402.38;;;22.48
74750;BMP280;63269;53.330;-6.288;2023-04-03T15:38:07;102399.31;;;22.49
74750;BMP280;63269;53.330;-6.288;2023-04-03T15:40:33;102391.28;;;22.49
74750;BMP280;63269;53.330;-6.288;2023-04-03T15:42:58;102398.56;;;22.49
74750;BMP280;63269;53.330;-6.288;2023-04-03T15:45:24;102402.75;;;22.50
74750;BMP280;63269;53.330;-6.288;2023-04-03T15:47:50;102404.66;;;22.49
74750;BMP280;63269;53.330;-6.288;2023-04-03T15:50:15;102399.31;;;22.49
74750;BMP280;63269;53.330;-6.288;2023-04-03T15:52:41;102404.66;;;22.49